Time,TemperatureF,DewpointF,PressureIn,WindDirection,WindDirectionDegrees,WindSpeedMPH,WindSpeedGustMPH,Humidity,HourlyPrecipIn,Conditions,Clouds,dailyrainin,SoftwareType,DateUTC
2013-08-08 07:30:00,72.7,48.3,30.21,NNW,348,2.0,3.0,42,0.00,,,0.00,Wunderground v.1.15,2013-08-08 14:30:00,
2013-08-08 07:40:00,73.4,48.9,30.21,North,359,2.0,2.0,42,0.00,,,0.00,Wunderground v.1.15,2013-08-08 14:40:00,
2013-08-08 07:50:00,73.9,48.1,30.21,North,9,2.0,2.0,40,0.00,,,0.00,Wunderground v.1.15,2013-08-08 14:50:00,
2013-08-08 08:00:00,75.2,49.2,30.21,NNE,20,2.0,2.0,40,0.00,,,0.00,Wunderground v.1.15,2013-08-08 15:00:00,
2013-08-08 08:10:00,75.5,49.5,30.21,NNW,331,2.0,2.0,40,0.00,,,0.00,Wunderground v.1.15,2013-08-08 15:10:00,
2013-08-08 08:20:00,76.2,50.1,30.21,NNE,30,2.0,2.0,40,0.00,,,0.00,Wunderground v.1.15,2013-08-08 15:20:00,
2013-08-08 08:30:00,77.1,50.2,30.21,North,11,1.0,1.0,39,0.00,,,0.00,Wunderground v.1.15,2013-08-08 15:30:00,
2013-08-08 08:40:00,77.2,50.3,30.21,NNW,346,2.0,3.0,39,0.00,,,0.00,Wunderground v.1.15,2013-08-08 15:40:00,
2013-08-08 08:50:00,77.6,51.4,30.20,SE,143,2.0,2.0,40,0.00,,,0.00,Wunderground v.1.15,2013-08-08 15:50:00,
2013-08-08 09:00:00,78.3,50.6,30.20,North,357,1.0,1.0,38,0.00,,,0.00,Wunderground v.1.15,2013-08-08 16:00:00,
2013-08-08 09:10:00,79.8,51.9,30.20,NE,56,1.0,2.0,38,0.00,,,0.00,Wunderground v.1.15,2013-08-08 16:10:00,
2013-08-08 09:20:00,79.5,51.7,30.20,NE,46,2.0,2.0,38,0.00,,,0.00,Wunderground v.1.15,2013-08-08 16:20:00,
2013-08-08 09:30:00,80.3,51.7,30.20,SE,141,2.0,2.0,37,0.00,,,0.00,Wunderground v.1.15,2013-08-08 16:30:00,
2013-08-08 09:40:00,81.1,51.6,30.20,NNE,23,1.0,2.0,36,0.00,,,0.00,Wunderground v.1.15,2013-08-08 16:40:00,
2013-08-08 09:50:00,81.9,51.6,30.20,ESE,104,2.0,2.0,35,0.00,,,0.00,Wunderground v.1.15,2013-08-08 16:50:00,
2013-08-08 10:00:00,81.9,51.6,30.20,ENE,69,1.0,1.0,35,0.00,,,0.00,Wunderground v.1.15,2013-08-08 17:00:00,
2013-08-08 10:10:00,82.9,51.6,30.20,NNE,22,2.0,2.0,34,0.00,,,0.00,Wunderground v.1.15,2013-08-08 17:10:00,
2013-08-08 10:20:00,84.2,52.0,30.19,East,84,1.0,3.0,33,0.00,,,0.00,Wunderground v.1.15,2013-08-08 17:20:00,
2013-08-08 10:30:00,84.1,52.7,30.19,East,89,2.0,2.0,34,0.00,,,0.00,Wunderground v.1.15,2013-08-08 17:30:00,
2013-08-08 10:40:00,84.7,51.6,30.19,NNW,335,2.0,2.0,32,0.00,,,0.00,Wunderground v.1.15,2013-08-08 17:40:00,
2013-08-08 10:50:00,85.8,51.7,30.19,SW,215,2.0,2.0,31,0.00,,,0.00,Wunderground v.1.15,2013-08-08 17:50:00,
2013-08-08 11:00:00,87.7,50.6,30.18,NNE,32,1.0,2.0,28,0.00,,,0.00,Wunderground v.1.15,2013-08-08 18:00:00,
2013-08-08 11:10:00,88.4,48.1,30.18,SSE,165,3.0,3.0,25,0.00,,,0.00,Wunderground v.1.15,2013-08-08 18:10:00,
2013-08-08 11:20:00,89.3,48.9,30.17,SSE,163,1.0,1.0,25,0.00,,,0.00,Wunderground v.1.15,2013-08-08 18:20:00,
2013-08-08 11:30:00,90.5,45.2,30.17,South,179,2.0,3.0,21,0.00,,,0.00,Wunderground v.1.15,2013-08-08 18:30:00,
2013-08-08 11:40:00,91.3,45.9,30.16,SE,143,3.0,3.0,21,0.00,,,0.00,Wunderground v.1.15,2013-08-08 18:40:00,
2013-08-08 11:50:00,92.6,42.9,30.16,SSW,196,3.0,4.0,18,0.00,,,0.00,Wunderground v.1.15,2013-08-08 18:50:00,
2013-08-08 12:00:00,92.6,38.2,30.16,SE,129,5.0,5.0,15,0.00,,,0.00,Wunderground v.1.15,2013-08-08 19:00:00,
2013-08-08 12:10:00,93.4,38.8,30.15,South,186,3.0,3.0,15,0.00,,,0.00,Wunderground v.1.15,2013-08-08 19:10:00,
2013-08-08 12:20:00,93.7,39.1,30.15,SSE,167,4.0,9.0,15,0.00,,,0.00,Wunderground v.1.15,2013-08-08 19:20:00,
2013-08-08 12:30:00,94.6,39.8,30.15,South,169,5.0,12.0,15,0.00,,,0.00,Wunderground v.1.15,2013-08-08 19:30:00,
2013-08-08 12:40:00,93.6,39.0,30.15,SSE,153,7.0,7.0,15,0.00,,,0.00,Wunderground v.1.15,2013-08-08 19:40:00,
2013-08-08 12:50:00,94.2,39.5,30.14,NE,55,4.0,5.0,15,0.00,,,0.00,Wunderground v.1.15,2013-08-08 19:50:00,
2013-08-08 13:00:00,94.2,37.7,30.14,South,176,3.0,8.0,14,0.00,,,0.00,Wunderground v.1.15,2013-08-08 20:00:00,
2013-08-08 13:10:00,94.4,39.6,30.14,WSW,252,5.0,6.0,15,0.00,,,0.00,Wunderground v.1.15,2013-08-08 20:10:00,
2013-08-08 13:20:00,94.8,38.2,30.13,SSE,164,5.0,5.0,14,0.00,,,0.00,Wunderground v.1.15,2013-08-08 20:20:00,
2013-08-08 13:30:00,93.8,37.4,30.13,SSE,149,7.0,7.0,14,0.00,,,0.00,Wunderground v.1.15,2013-08-08 20:30:00,
2013-08-08 13:40:00,94.4,37.9,30.13,South,170,7.0,7.0,14,0.00,,,0.00,Wunderground v.1.15,2013-08-08 20:40:00,
2013-08-08 13:50:00,93.6,37.2,30.12,ENE,70,5.0,5.0,14,0.00,,,0.00,Wunderground v.1.15,2013-08-08 20:50:00,
2013-08-08 14:00:00,94.7,34.2,30.12,South,181,5.0,9.0,12,0.00,,,0.00,Wunderground v.1.15,2013-08-08 21:00:00,
2013-08-08 14:10:00,94.5,36.1,30.12,South,183,5.0,9.0,13,0.00,,,0.00,Wunderground v.1.15,2013-08-08 21:10:00,
2013-08-08 14:20:00,94.8,36.3,30.12,SE,136,7.0,8.0,13,0.00,,,0.00,Wunderground v.1.15,2013-08-08 21:20:00,
2013-08-08 14:30:00,95.0,34.4,30.11,South,181,5.0,5.0,12,0.00,,,0.00,Wunderground v.1.15,2013-08-08 21:30:00,
2013-08-08 14:40:00,95.8,35.0,30.11,East,82,3.0,4.0,12,0.00,,,0.00,Wunderground v.1.15,2013-08-08 21:40:00,
2013-08-08 14:50:00,94.7,34.2,30.10,SSW,195,6.0,6.0,12,0.00,,,0.00,Wunderground v.1.15,2013-08-08 21:50:00,
2013-08-08 15:00:00,94.8,34.3,30.10,SSE,159,5.0,9.0,12,0.00,,,0.00,Wunderground v.1.15,2013-08-08 22:00:00,
2013-08-08 15:10:00,95.1,34.5,30.10,SW,231,6.0,6.0,12,0.00,,,0.00,Wunderground v.1.15,2013-08-08 22:10:00,
2013-08-08 15:20:00,94.5,34.0,30.10,SSW,210,6.0,8.0,12,0.00,,,0.00,Wunderground v.1.15,2013-08-08 22:20:00,
2013-08-08 15:30:00,94.9,36.4,30.09,South,187,5.0,8.0,13,0.00,,,0.00,Wunderground v.1.15,2013-08-08 22:30:00,
2013-08-08 15:40:00,95.5,34.8,30.09,SE,139,5.0,5.0,12,0.00,,,0.00,Wunderground v.1.15,2013-08-08 22:40:00,
2013-08-08 15:50:00,94.9,32.2,30.09,ESE,114,6.0,6.0,11,0.00,,,0.00,Wunderground v.1.15,2013-08-08 22:50:00,
2013-08-08 16:01:00,95.6,36.9,30.08,SSE,160,3.0,7.0,13,0.00,,,0.00,Wunderground v.1.15,2013-08-08 23:01:00,
2013-08-08 16:10:00,94.8,34.3,30.09,WSW,246,7.0,10.0,12,0.00,,,0.00,Wunderground v.1.15,2013-08-08 23:10:00,
2013-08-08 16:20:00,95.0,34.4,30.08,SW,217,5.0,7.0,12,0.00,,,0.00,Wunderground v.1.15,2013-08-08 23:20:00,
2013-08-08 16:30:00,94.3,33.9,30.08,WSW,245,6.0,9.0,12,0.00,,,0.00,Wunderground v.1.15,2013-08-08 23:30:00,
2013-08-08 16:40:00,94.3,33.9,30.08,SSE,165,6.0,6.0,12,0.00,,,0.00,Wunderground v.1.15,2013-08-08 23:40:00,
2013-08-08 17:00:00,93.4,33.2,30.08,SE,139,8.0,9.0,12,0.00,,,0.00,Wunderground v.1.15,2013-08-09 00:00:00,
2013-08-08 17:10:00,93.4,33.2,30.08,South,181,7.0,7.0,12,0.00,,,0.00,Wunderground v.1.15,2013-08-09 00:10:00,
2013-08-08 17:20:00,93.2,33.0,30.08,SSE,165,7.0,7.0,12,0.00,,,0.00,Wunderground v.1.15,2013-08-09 00:20:00,
2013-08-08 17:30:00,93.0,34.9,30.07,South,185,7.0,7.0,13,0.00,,,0.00,Wunderground v.1.15,2013-08-09 00:30:00,
2013-08-08 17:40:00,92.9,34.8,30.07,SSE,151,7.0,10.0,13,0.00,,,0.00,Wunderground v.1.15,2013-08-09 00:40:00,
2013-08-08 17:50:00,92.4,34.4,30.07,SSW,207,6.0,6.0,13,0.00,,,0.00,Wunderground v.1.15,2013-08-09 00:50:00,
2013-08-08 18:01:00,91.9,34.0,30.07,SW,219,6.0,7.0,13,0.00,,,0.00,Wunderground v.1.15,2013-08-09 01:01:00,
2013-08-08 18:10:00,91.3,33.6,30.07,SW,217,7.0,7.0,13,0.00,,,0.00,Wunderground v.1.15,2013-08-09 01:10:00,
2013-08-08 18:20:00,90.9,35.1,30.08,SW,229,6.0,6.0,14,0.00,,,0.00,Wunderground v.1.15,2013-08-09 01:20:00,
2013-08-08 18:30:00,90.3,34.6,30.07,SE,141,6.0,6.0,14,0.00,,,0.00,Wunderground v.1.15,2013-08-09 01:30:00,
2013-08-08 18:40:00,88.8,33.4,30.07,SSE,162,6.0,6.0,14,0.00,,,0.00,Wunderground v.1.15,2013-08-09 01:40:00,
2013-08-08 18:50:00,87.5,34.1,30.07,SE,131,6.0,8.0,15,0.00,,,0.00,Wunderground v.1.15,2013-08-09 01:50:00,
2013-08-08 19:01:00,86.6,33.4,30.08,SSW,210,6.0,8.0,15,0.00,,,0.00,Wunderground v.1.15,2013-08-09 02:01:00,
2013-08-08 19:10:00,86.2,34.7,30.08,SSW,200,7.0,7.0,16,0.00,,,0.00,Wunderground v.1.15,2013-08-09 02:10:00,
2013-08-08 19:20:00,85.4,34.1,30.08,SSE,168,4.0,6.0,16,0.00,,,0.00,Wunderground v.1.15,2013-08-09 02:20:00,
2013-08-08 19:30:00,85.3,34.0,30.08,SW,217,7.0,7.0,16,0.00,,,0.00,Wunderground v.1.15,2013-08-09 02:30:00,
2013-08-08 19:40:00,84.9,35.2,30.08,WSW,252,5.0,6.0,17,0.00,,,0.00,Wunderground v.1.15,2013-08-09 02:40:00,
2013-08-08 19:50:00,84.9,35.2,30.08,SSW,212,8.0,8.0,17,0.00,,,0.00,Wunderground v.1.15,2013-08-09 02:50:00,
2013-08-08 20:10:00,83.8,34.3,30.08,SW,219,4.0,4.0,17,0.00,,,0.00,Wunderground v.1.15,2013-08-09 03:10:00,
2013-08-08 20:20:00,83.5,35.5,30.09,WSW,238,5.0,6.0,18,0.00,,,0.00,Wunderground v.1.15,2013-08-09 03:20:00,
2013-08-08 20:40:00,82.7,34.9,30.10,West,272,4.0,6.0,18,0.00,,,0.00,Wunderground v.1.15,2013-08-09 03:40:00,
2013-08-08 20:50:00,82.1,34.4,30.10,SSW,202,3.0,3.0,18,0.00,,,0.00,Wunderground v.1.15,2013-08-09 03:50:00,
2013-08-08 21:00:00,81.2,35.0,30.11,SW,222,1.0,2.0,19,0.00,,,0.00,Wunderground v.1.15,2013-08-09 04:00:00,
2013-08-08 21:10:00,81.1,34.9,30.11,SW,236,3.0,7.0,19,0.00,,,0.00,Wunderground v.1.15,2013-08-09 04:10:00,
2013-08-08 21:20:00,81.6,34.0,30.11,WSW,255,4.0,5.0,18,0.00,,,0.00,Wunderground v.1.15,2013-08-09 04:20:00,
2013-08-08 21:30:00,81.6,34.0,30.11,SW,233,3.0,3.0,18,0.00,,,0.00,Wunderground v.1.15,2013-08-09 04:30:00,
2013-08-08 21:40:00,81.5,33.9,30.11,SW,230,3.0,6.0,18,0.00,,,0.00,Wunderground v.1.15,2013-08-09 04:40:00,
2013-08-08 21:50:00,81.6,34.0,30.12,WSW,251,4.0,5.0,18,0.00,,,0.00,Wunderground v.1.15,2013-08-09 04:50:00,
2013-08-08 22:00:00,81.4,33.8,30.12,WNW,287,3.0,3.0,18,0.00,,,0.00,Wunderground v.1.15,2013-08-09 05:00:00,
2013-08-08 22:10:00,81.3,33.7,30.12,SW,219,2.0,2.0,18,0.00,,,0.00,Wunderground v.1.15,2013-08-09 05:10:00,